sensor_id;sensor_type;location;lat;lon;timestamp;P1;durP1;ratioP1;P2;durP2;ratioP2
25107;SDS011;13090;53.422;7.670;2023-06-22T00:00:22;7.22;;;5.70;;
25107;SDS011;13090;53.422;7.670;2023-06-22T00:05:44;5.05;;;4.55;;
25107;SDS011;13090;53.422;7.670;2023-06-22T00:11:05;6.80;;;6.10;;
25107;SDS011;13090;53.422;7.670;2023-06-22T00:16:26;6.80;;;6.10;;
25107;SDS011;13090;53.422;7.670;2023-06-22T00:21:48;8.75;;;6.22;;
25107;SDS011;13090;53.422;7.670;2023-06-22T00:27:09;8.25;;;6.30;;
25107;SDS011;13090;53.422;7.670;2023-06-22T00:32:30;5.57;;;5.07;;
25107;SDS011;13090;53.422;7.670;2023-06-22T00:37:52;6.97;;;5.50;;
25107;SDS011;13090;53.422;7.670;2023-06-22T00:43:13;7.20;;;6.20;;
25107;SDS011;13090;53.422;7.670;2023-06-22T00:48:34;7.88;;;6.22;;
25107;SDS011;13090;53.422;7.670;2023-06-22T00:53:57;7.85;;;5.88;;
25107;SDS011;13090;53.422;7.670;2023-06-22T00:59:18;10.55;;;6.80;;
25107;SDS011;13090;53.422;7.670;2023-06-22T01:04:39;6.45;;;5.72;;
25107;SDS011;13090;53.422;7.670;2023-06-22T01:10:03;8.05;;;6.28;;
25107;SDS011;13090;53.422;7.670;2023-06-22T01:15:28;5.70;;;5.20;;
25107;SDS011;13090;53.422;7.670;2023-06-22T01:20:53;6.05;;;5.45;;
25107;SDS011;13090;53.422;7.670;2023-06-22T01:26:17;5.80;;;5.15;;
25107;SDS011;13090;53.422;7.670;2023-06-22T01:31:42;6.32;;;5.72;;
25107;SDS011;13090;53.422;7.670;2023-06-22T01:37:06;6.38;;;5.78;;
25107;SDS011;13090;53.422;7.670;2023-06-22T01:42:28;5.30;;;4.80;;
25107;SDS011;13090;53.422;7.670;2023-06-22T01:47:51;5.88;;;5.28;;
25107;SDS011;13090;53.422;7.670;2023-06-22T01:53:13;5.82;;;5.30;;
25107;SDS011;13090;53.422;7.670;2023-06-22T01:58:33;5.82;;;5.05;;
25107;SDS011;13090;53.422;7.670;2023-06-22T02:04:05;5.65;;;5.10;;
25107;SDS011;13090;53.422;7.670;2023-06-22T02:09:31;4.90;;;4.40;;
25107;SDS011;13090;53.422;7.670;2023-06-22T02:14:54;6.03;;;5.53;;
25107;SDS011;13090;53.422;7.670;2023-06-22T02:20:16;6.28;;;5.68;;
25107;SDS011;13090;53.422;7.670;2023-06-22T02:25:38;6.25;;;5.65;;
25107;SDS011;13090;53.422;7.670;2023-06-22T02:30:59;8.98;;;5.82;;
25107;SDS011;13090;53.422;7.670;2023-06-22T02:36:21;6.43;;;5.82;;
25107;SDS011;13090;53.422;7.670;2023-06-22T02:41:42;6.75;;;6.05;;
25107;SDS011;13090;53.422;7.670;2023-06-22T02:47:03;7.60;;;6.45;;
25107;SDS011;13090;53.422;7.670;2023-06-22T02:52:26;7.40;;;6.70;;
25107;SDS011;13090;53.422;7.670;2023-06-22T02:57:47;6.93;;;6.22;;
25107;SDS011;13090;53.422;7.670;2023-06-22T03:03:08;7.30;;;6.60;;
25107;SDS011;13090;53.422;7.670;2023-06-22T03:08:30;10.90;;;7.68;;
25107;SDS011;13090;53.422;7.670;2023-06-22T03:13:51;8.77;;;6.90;;
25107;SDS011;13090;53.422;7.670;2023-06-22T03:19:12;6.55;;;5.95;;
25107;SDS011;13090;53.422;7.670;2023-06-22T03:24:35;6.50;;;5.90;;
25107;SDS011;13090;53.422;7.670;2023-06-22T03:29:56;9.15;;;8.05;;
25107;SDS011;13090;53.422;7.670;2023-06-22T03:40:39;6.07;;;5.30;;
25107;SDS011;13090;53.422;7.670;2023-06-22T03:46:00;6.25;;;5.65;;
25107;SDS011;13090;53.422;7.670;2023-06-22T03:51:21;5.80;;;4.85;;
25107;SDS011;13090;53.422;7.670;2023-06-22T03:56:44;7.22;;;6.53;;
25107;SDS011;13090;53.422;7.670;2023-06-22T04:02:05;7.03;;;6.32;;
25107;SDS011;13090;53.422;7.670;2023-06-22T04:07:25;8.85;;;7.75;;
25107;SDS011;13090;53.422;7.670;2023-06-22T04:12:48;7.65;;;6.85;;
25107;SDS011;13090;53.422;7.670;2023-06-22T04:18:09;8.52;;;7.50;;
25107;SDS011;13090;53.422;7.670;2023-06-22T04:23:30;8.15;;;7.28;;
25107;SDS011;13090;53.422;7.670;2023-06-22T04:28:52;6.40;;;5.63;;
25107;SDS011;13090;53.422;7.670;2023-06-22T04:34:12;12.20;;;10.38;;
25107;SDS011;13090;53.422;7.670;2023-06-22T04:39:33;12.52;;;10.73;;
25107;SDS011;13090;53.422;7.670;2023-06-22T04:44:56;15.07;;;12.00;;
25107;SDS011;13090;53.422;7.670;2023-06-22T04:50:19;19.83;;;15.75;;
25107;SDS011;13090;53.422;7.670;2023-06-22T04:55:40;19.90;;;16.27;;
25107;SDS011;13090;53.422;7.670;2023-06-22T05:01:02;17.75;;;15.05;;
25107;SDS011;13090;53.422;7.670;2023-06-22T05:06:23;19.05;;;13.70;;
25107;SDS011;13090;53.422;7.670;2023-06-22T05:11:45;19.38;;;15.25;;
25107;SDS011;13090;53.422;7.670;2023-06-22T05:17:07;18.90;;;14.52;;
25107;SDS011;13090;53.422;7.670;2023-06-22T05:22:29;18.20;;;14.60;;
25107;SDS011;13090;53.422;7.670;2023-06-22T05:27:49;19.55;;;15.05;;
25107;SDS011;13090;53.422;7.670;2023-06-22T05:33:12;21.45;;;15.40;;
25107;SDS011;13090;53.422;7.670;2023-06-22T05:38:33;20.10;;;13.40;;
25107;SDS011;13090;53.422;7.670;2023-06-22T05:43:54;18.40;;;13.82;;
25107;SDS011;13090;53.422;7.670;2023-06-22T05:49:16;22.08;;;16.02;;
25107;SDS011;13090;53.422;7.670;2023-06-22T05:54:37;17.40;;;13.05;;
25107;SDS011;13090;53.422;7.670;2023-06-22T05:59:58;15.57;;;12.23;;
25107;SDS011;13090;53.422;7.670;2023-06-22T06:05:20;15.65;;;12.68;;
25107;SDS011;13090;53.422;7.670;2023-06-22T06:10:41;17.48;;;12.88;;
25107;SDS011;13090;53.422;7.670;2023-06-22T06:16:02;17.88;;;13.20;;
25107;SDS011;13090;53.422;7.670;2023-06-22T06:21:25;13.73;;;10.35;;
25107;SDS011;13090;53.422;7.670;2023-06-22T06:26:49;17.03;;;11.57;;
25107;SDS011;13090;53.422;7.670;2023-06-22T06:32:10;21.02;;;16.48;;
25107;SDS011;13090;53.422;7.670;2023-06-22T06:37:35;13.93;;;11.23;;
25107;SDS011;13090;53.422;7.670;2023-06-22T06:42:57;11.30;;;8.90;;
25107;SDS011;13090;53.422;7.670;2023-06-22T06:48:18;9.75;;;8.43;;
25107;SDS011;13090;53.422;7.670;2023-06-22T06:53:40;9.68;;;8.48;;
25107;SDS011;13090;53.422;7.670;2023-06-22T06:59:01;25.50;;;20.02;;
25107;SDS011;13090;53.422;7.670;2023-06-22T07:04:22;9.45;;;7.90;;
25107;SDS011;13090;53.422;7.670;2023-06-22T07:09:45;11.77;;;8.40;;
25107;SDS011;13090;53.422;7.670;2023-06-22T07:15:06;9.23;;;6.70;;
25107;SDS011;13090;53.422;7.670;2023-06-22T07:20:29;10.00;;;8.07;;
25107;SDS011;13090;53.422;7.670;2023-06-22T07:25:52;9.90;;;8.25;;
25107;SDS011;13090;53.422;7.670;2023-06-22T07:31:13;8.27;;;6.60;;
25107;SDS011;13090;53.422;7.670;2023-06-22T07:36:34;9.55;;;6.50;;
25107;SDS011;13090;53.422;7.670;2023-06-22T07:41:56;5.78;;;4.45;;
25107;SDS011;13090;53.422;7.670;2023-06-22T07:47:17;5.60;;;4.93;;
25107;SDS011;13090;53.422;7.670;2023-06-22T07:52:38;6.15;;;4.82;;
25107;SDS011;13090;53.422;7.670;2023-06-22T07:58:00;6.20;;;5.00;;
25107;SDS011;13090;53.422;7.670;2023-06-22T08:03:21;5.10;;;4.38;;
25107;SDS011;13090;53.422;7.670;2023-06-22T08:08:43;5.90;;;4.32;;
25107;SDS011;13090;53.422;7.670;2023-06-22T08:14:05;10.93;;;7.28;;
25107;SDS011;13090;53.422;7.670;2023-06-22T08:19:26;7.47;;;5.72;;
25107;SDS011;13090;53.422;7.670;2023-06-22T08:24:47;8.18;;;6.88;;
25107;SDS011;13090;53.422;7.670;2023-06-22T08:30:09;7.55;;;5.28;;
25107;SDS011;13090;53.422;7.670;2023-06-22T08:35:31;9.50;;;5.72;;
25107;SDS011;13090;53.422;7.670;2023-06-22T08:40:52;7.65;;;5.80;;
25107;SDS011;13090;53.422;7.670;2023-06-22T08:46:14;6.85;;;5.45;;
25107;SDS011;13090;53.422;7.670;2023-06-22T08:51:35;12.73;;;6.65;;
25107;SDS011;13090;53.422;7.670;2023-06-22T08:56:56;6.88;;;5.72;;
25107;SDS011;13090;53.422;7.670;2023-06-22T09:02:19;15.55;;;6.95;;
25107;SDS011;13090;53.422;7.670;2023-06-22T09:07:40;14.98;;;9.75;;
25107;SDS011;13090;53.422;7.670;2023-06-22T09:13:01;9.27;;;6.90;;
25107;SDS011;13090;53.422;7.670;2023-06-22T09:18:23;6.68;;;5.97;;
25107;SDS011;13090;53.422;7.670;2023-06-22T09:23:45;7.22;;;5.22;;
25107;SDS011;13090;53.422;7.670;2023-06-22T09:29:05;4.07;;;3.65;;
25107;SDS011;13090;53.422;7.670;2023-06-22T09:34:28;4.68;;;3.83;;
25107;SDS011;13090;53.422;7.670;2023-06-22T09:39:50;4.28;;;3.72;;
25107;SDS011;13090;53.422;7.670;2023-06-22T09:45:11;4.38;;;3.58;;
25107;SDS011;13090;53.422;7.670;2023-06-22T09:50:33;5.57;;;4.28;;
25107;SDS011;13090;53.422;7.670;2023-06-22T09:55:54;3.97;;;3.50;;
25107;SDS011;13090;53.422;7.670;2023-06-22T10:01:15;3.88;;;3.50;;
25107;SDS011;13090;53.422;7.670;2023-06-22T10:06:38;4.18;;;3.78;;
25107;SDS011;13090;53.422;7.670;2023-06-22T10:11:59;4.70;;;3.50;;
25107;SDS011;13090;53.422;7.670;2023-06-22T10:17:20;3.95;;;3.17;;
25107;SDS011;13090;53.422;7.670;2023-06-22T10:22:42;2.83;;;2.53;;
25107;SDS011;13090;53.422;7.670;2023-06-22T10:28:04;2.97;;;2.40;;
25107;SDS011;13090;53.422;7.670;2023-06-22T10:33:25;4.03;;;2.20;;
25107;SDS011;13090;53.422;7.670;2023-06-22T10:38:48;2.45;;;2.08;;
25107;SDS011;13090;53.422;7.670;2023-06-22T10:44:09;3.72;;;2.50;;
25107;SDS011;13090;53.422;7.670;2023-06-22T10:49:30;5.25;;;2.67;;
25107;SDS011;13090;53.422;7.670;2023-06-22T10:54:52;3.45;;;3.10;;
25107;SDS011;13090;53.422;7.670;2023-06-22T11:00:13;6.05;;;4.60;;
25107;SDS011;13090;53.422;7.670;2023-06-22T11:05:35;5.25;;;4.03;;
25107;SDS011;13090;53.422;7.670;2023-06-22T11:10:57;3.58;;;3.05;;
25107;SDS011;13090;53.422;7.670;2023-06-22T11:16:18;5.35;;;4.40;;
25107;SDS011;13090;53.422;7.670;2023-06-22T11:21:39;4.38;;;3.97;;
25107;SDS011;13090;53.422;7.670;2023-06-22T11:27:02;4.68;;;3.17;;
25107;SDS011;13090;53.422;7.670;2023-06-22T11:32:23;4.93;;;3.97;;
25107;SDS011;13090;53.422;7.670;2023-06-22T11:37:44;6.18;;;3.45;;
25107;SDS011;13090;53.422;7.670;2023-06-22T11:43:07;3.97;;;2.92;;
25107;SDS011;13090;53.422;7.670;2023-06-22T11:48:28;7.35;;;3.60;;
25107;SDS011;13090;53.422;7.670;2023-06-22T11:53:49;3.75;;;3.42;;
25107;SDS011;13090;53.422;7.670;2023-06-22T11:59:11;4.50;;;3.63;;
25107;SDS011;13090;53.422;7.670;2023-06-22T12:04:33;5.38;;;4.22;;
25107;SDS011;13090;53.422;7.670;2023-06-22T12:09:53;8.73;;;4.78;;
25107;SDS011;13090;53.422;7.670;2023-06-22T12:15:16;4.10;;;3.45;;
25107;SDS011;13090;53.422;7.670;2023-06-22T12:20:37;10.73;;;4.88;;
25107;SDS011;13090;53.422;7.670;2023-06-22T12:25:57;4.28;;;3.17;;
25107;SDS011;13090;53.422;7.670;2023-06-22T12:31:20;4.50;;;3.25;;
25107;SDS011;13090;53.422;7.670;2023-06-22T12:36:41;8.23;;;3.03;;
25107;SDS011;13090;53.422;7.670;2023-06-22T12:42:02;5.50;;;3.92;;
25107;SDS011;13090;53.422;7.670;2023-06-22T12:47:25;4.10;;;2.75;;
25107;SDS011;13090;53.422;7.670;2023-06-22T12:52:46;3.92;;;2.83;;
25107;SDS011;13090;53.422;7.670;2023-06-22T12:58:07;4.07;;;2.65;;
25107;SDS011;13090;53.422;7.670;2023-06-22T13:03:29;3.83;;;2.67;;
25107;SDS011;13090;53.422;7.670;2023-06-22T13:08:50;8.52;;;6.78;;
25107;SDS011;13090;53.422;7.670;2023-06-22T13:14:14;5.22;;;4.20;;
25107;SDS011;13090;53.422;7.670;2023-06-22T13:19:37;4.35;;;3.60;;
25107;SDS011;13090;53.422;7.670;2023-06-22T13:24:58;4.03;;;2.80;;
25107;SDS011;13090;53.422;7.670;2023-06-22T13:30:20;3.83;;;2.42;;
25107;SDS011;13090;53.422;7.670;2023-06-22T13:35:42;6.22;;;2.53;;
25107;SDS011;13090;53.422;7.670;2023-06-22T13:41:03;3.40;;;2.42;;
25107;SDS011;13090;53.422;7.670;2023-06-22T13:46:24;3.47;;;2.63;;
25107;SDS011;13090;53.422;7.670;2023-06-22T13:51:46;3.50;;;2.53;;
25107;SDS011;13090;53.422;7.670;2023-06-22T13:57:07;2.50;;;2.00;;
25107;SDS011;13090;53.422;7.670;2023-06-22T14:02:28;3.75;;;2.58;;
25107;SDS011;13090;53.422;7.670;2023-06-22T14:07:50;2.97;;;2.28;;
25107;SDS011;13090;53.422;7.670;2023-06-22T14:13:12;2.08;;;1.88;;
25107;SDS011;13090;53.422;7.670;2023-06-22T14:18:33;3.38;;;1.52;;
25107;SDS011;13090;53.422;7.670;2023-06-22T14:23:55;2.25;;;1.38;;
25107;SDS011;13090;53.422;7.670;2023-06-22T14:29:16;3.10;;;1.42;;
25107;SDS011;13090;53.422;7.670;2023-06-22T14:34:37;1.52;;;1.38;;
25107;SDS011;13090;53.422;7.670;2023-06-22T14:39:59;1.60;;;1.15;;
25107;SDS011;13090;53.422;7.670;2023-06-22T14:45:21;1.88;;;1.20;;
25107;SDS011;13090;53.422;7.670;2023-06-22T14:50:42;1.50;;;1.00;;
25107;SDS011;13090;53.422;7.670;2023-06-22T14:56:04;0.85;;;0.82;;
25107;SDS011;13090;53.422;7.670;2023-06-22T15:01:25;0.98;;;0.85;;
25107;SDS011;13090;53.422;7.670;2023-06-22T15:06:46;3.60;;;1.10;;
25107;SDS011;13090;53.422;7.670;2023-06-22T15:12:08;1.42;;;0.90;;
25107;SDS011;13090;53.422;7.670;2023-06-22T15:17:30;4.25;;;1.08;;
25107;SDS011;13090;53.422;7.670;2023-06-22T15:22:51;1.00;;;0.90;;
25107;SDS011;13090;53.422;7.670;2023-06-22T15:28:14;0.90;;;0.70;;
25107;SDS011;13090;53.422;7.670;2023-06-22T15:33:35;1.60;;;0.90;;
25107;SDS011;13090;53.422;7.670;2023-06-22T15:38:55;1.77;;;1.10;;
25107;SDS011;13090;53.422;7.670;2023-06-22T15:44:18;1.08;;;0.90;;
25107;SDS011;13090;53.422;7.670;2023-06-22T15:49:39;0.98;;;0.80;;
25107;SDS011;13090;53.422;7.670;2023-06-22T15:55:00;4.72;;;1.08;;
25107;SDS011;13090;53.422;7.670;2023-06-22T16:00:22;0.70;;;0.60;;
25107;SDS011;13090;53.422;7.670;2023-06-22T16:05:43;6.57;;;4.57;;
25107;SDS011;13090;53.422;7.670;2023-06-22T16:11:04;3.58;;;2.60;;
25107;SDS011;13090;53.422;7.670;2023-06-22T16:16:26;1.50;;;1.40;;
25107;SDS011;13090;53.422;7.670;2023-06-22T16:21:47;2.38;;;1.45;;
25107;SDS011;13090;53.422;7.670;2023-06-22T16:27:08;2.22;;;0.90;;
25107;SDS011;13090;53.422;7.670;2023-06-22T16:32:31;1.02;;;0.88;;
25107;SDS011;13090;53.422;7.670;2023-06-22T16:37:52;1.25;;;0.90;;
25107;SDS011;13090;53.422;7.670;2023-06-22T16:43:14;0.90;;;0.88;;
25107;SDS011;13090;53.422;7.670;2023-06-22T16:48:37;3.75;;;2.55;;
25107;SDS011;13090;53.422;7.670;2023-06-22T16:53:58;5.55;;;3.83;;
25107;SDS011;13090;53.422;7.670;2023-06-22T16:59:20;3.05;;;2.03;;
25107;SDS011;13090;53.422;7.670;2023-06-22T17:04:42;1.45;;;1.30;;
25107;SDS011;13090;53.422;7.670;2023-06-22T17:10:06;2.97;;;1.20;;
25107;SDS011;13090;53.422;7.670;2023-06-22T17:15:28;22.85;;;16.05;;
25107;SDS011;13090;53.422;7.670;2023-06-22T17:20:53;5.50;;;4.07;;
25107;SDS011;13090;53.422;7.670;2023-06-22T17:26:14;5.57;;;2.17;;
25107;SDS011;13090;53.422;7.670;2023-06-22T17:31:36;1.80;;;1.42;;
25107;SDS011;13090;53.422;7.670;2023-06-22T17:36:59;2.03;;;1.35;;
25107;SDS011;13090;53.422;7.670;2023-06-22T17:42:21;3.08;;;1.20;;
25107;SDS011;13090;53.422;7.670;2023-06-22T17:47:42;2.22;;;1.02;;
25107;SDS011;13090;53.422;7.670;2023-06-22T17:53:10;3.22;;;1.20;;
25107;SDS011;13090;53.422;7.670;2023-06-22T17:58:32;5.33;;;1.47;;
25107;SDS011;13090;53.422;7.670;2023-06-22T18:03:53;2.28;;;1.58;;
25107;SDS011;13090;53.422;7.670;2023-06-22T18:09:15;2.67;;;1.30;;
25107;SDS011;13090;53.422;7.670;2023-06-22T18:14:37;2.90;;;1.63;;
25107;SDS011;13090;53.422;7.670;2023-06-22T18:19:59;3.40;;;1.40;;
25107;SDS011;13090;53.422;7.670;2023-06-22T18:25:22;3.00;;;1.60;;
25107;SDS011;13090;53.422;7.670;2023-06-22T18:30:45;2.55;;;1.50;;
25107;SDS011;13090;53.422;7.670;2023-06-22T18:36:07;2.22;;;1.50;;
25107;SDS011;13090;53.422;7.670;2023-06-22T18:41:34;3.95;;;1.77;;
25107;SDS011;13090;53.422;7.670;2023-06-22T18:46:56;1.92;;;1.35;;
25107;SDS011;13090;53.422;7.670;2023-06-22T18:52:23;3.53;;;1.65;;
25107;SDS011;13090;53.422;7.670;2023-06-22T18:57:48;5.53;;;1.77;;
25107;SDS011;13090;53.422;7.670;2023-06-22T19:03:35;5.93;;;1.58;;
25107;SDS011;13090;53.422;7.670;2023-06-22T19:09:15;4.15;;;1.90;;
25107;SDS011;13090;53.422;7.670;2023-06-22T19:14:37;3.80;;;1.90;;
25107;SDS011;13090;53.422;7.670;2023-06-22T19:20:00;5.38;;;1.75;;
25107;SDS011;13090;53.422;7.670;2023-06-22T19:25:24;3.28;;;1.75;;
25107;SDS011;13090;53.422;7.670;2023-06-22T19:30:48;2.85;;;1.73;;
25107;SDS011;13090;53.422;7.670;2023-06-22T19:36:11;3.05;;;1.70;;
25107;SDS011;13090;53.422;7.670;2023-06-22T19:41:32;2.30;;;1.83;;
25107;SDS011;13090;53.422;7.670;2023-06-22T19:46:55;3.45;;;2.15;;
25107;SDS011;13090;53.422;7.670;2023-06-22T19:52:16;15.50;;;8.63;;
25107;SDS011;13090;53.422;7.670;2023-06-22T19:57:37;5.75;;;2.60;;
25107;SDS011;13090;53.422;7.670;2023-06-22T20:02:59;4.15;;;2.92;;
25107;SDS011;13090;53.422;7.670;2023-06-22T20:08:20;4.88;;;2.72;;
25107;SDS011;13090;53.422;7.670;2023-06-22T20:13:46;5.93;;;2.55;;
25107;SDS011;13090;53.422;7.670;2023-06-22T20:19:09;5.50;;;2.65;;
25107;SDS011;13090;53.422;7.670;2023-06-22T20:24:30;4.82;;;2.75;;
25107;SDS011;13090;53.422;7.670;2023-06-22T20:29:51;4.97;;;2.90;;
25107;SDS011;13090;53.422;7.670;2023-06-22T20:35:16;6.03;;;2.95;;
25107;SDS011;13090;53.422;7.670;2023-06-22T20:40:38;4.60;;;2.58;;
25107;SDS011;13090;53.422;7.670;2023-06-22T20:45:59;3.17;;;2.45;;
25107;SDS011;13090;53.422;7.670;2023-06-22T20:51:21;4.18;;;3.03;;
25107;SDS011;13090;53.422;7.670;2023-06-22T20:56:43;4.18;;;2.70;;
25107;SDS011;13090;53.422;7.670;2023-06-22T21:02:04;5.20;;;2.97;;
25107;SDS011;13090;53.422;7.670;2023-06-22T21:07:27;3.78;;;2.72;;
25107;SDS011;13090;53.422;7.670;2023-06-22T21:12:48;4.72;;;3.08;;
25107;SDS011;13090;53.422;7.670;2023-06-22T21:18:09;3.40;;;2.65;;
25107;SDS011;13090;53.422;7.670;2023-06-22T21:23:31;4.32;;;2.92;;
25107;SDS011;13090;53.422;7.670;2023-06-22T21:28:52;4.90;;;3.00;;
25107;SDS011;13090;53.422;7.670;2023-06-22T21:34:13;4.78;;;3.00;;
25107;SDS011;13090;53.422;7.670;2023-06-22T21:39:35;5.93;;;3.70;;
25107;SDS011;13090;53.422;7.670;2023-06-22T21:44:57;4.55;;;3.47;;
25107;SDS011;13090;53.422;7.670;2023-06-22T21:50:18;6.07;;;3.58;;
25107;SDS011;13090;53.422;7.670;2023-06-22T21:55:41;6.65;;;3.10;;
25107;SDS011;13090;53.422;7.670;2023-06-22T22:01:02;7.18;;;3.58;;
25107;SDS011;13090;53.422;7.670;2023-06-22T22:06:23;6.35;;;3.30;;
25107;SDS011;13090;53.422;7.670;2023-06-22T22:11:45;8.25;;;3.08;;
25107;SDS011;13090;53.422;7.670;2023-06-22T22:17:06;6.75;;;3.80;;
25107;SDS011;13090;53.422;7.670;2023-06-22T22:22:27;4.95;;;3.65;;
25107;SDS011;13090;53.422;7.670;2023-06-22T22:27:49;5.30;;;3.10;;
25107;SDS011;13090;53.422;7.670;2023-06-22T22:33:10;5.50;;;3.35;;
25107;SDS011;13090;53.422;7.670;2023-06-22T22:38:31;6.13;;;3.40;;
25107;SDS011;13090;53.422;7.670;2023-06-22T22:43:53;6.25;;;3.40;;
25107;SDS011;13090;53.422;7.670;2023-06-22T22:49:14;4.88;;;3.53;;
25107;SDS011;13090;53.422;7.670;2023-06-22T22:54:35;7.45;;;3.78;;
25107;SDS011;13090;53.422;7.670;2023-06-22T22:59:58;6.43;;;3.40;;
25107;SDS011;13090;53.422;7.670;2023-06-22T23:05:18;5.68;;;3.78;;
25107;SDS011;13090;53.422;7.670;2023-06-22T23:10:39;8.45;;;3.83;;
25107;SDS011;13090;53.422;7.670;2023-06-22T23:16:02;5.15;;;3.60;;
25107;SDS011;13090;53.422;7.670;2023-06-22T23:21:23;7.57;;;3.90;;
25107;SDS011;13090;53.422;7.670;2023-06-22T23:26:45;5.53;;;3.85;;
25107;SDS011;13090;53.422;7.670;2023-06-22T23:32:08;6.57;;;3.90;;
25107;SDS011;13090;53.422;7.670;2023-06-22T23:37:29;5.25;;;3.28;;
25107;SDS011;13090;53.422;7.670;2023-06-22T23:42:49;7.32;;;3.72;;
25107;SDS011;13090;53.422;7.670;2023-06-22T23:48:12;6.53;;;3.30;;
25107;SDS011;13090;53.422;7.670;2023-06-22T23:53:33;6.47;;;2.97;;
25107;SDS011;13090;53.422;7.670;2023-06-22T23:58:54;6.55;;;3.80;;
